West Dover, VT

4:32 PM EST on February 27, 2015 (GMT -0500)
Upload Testing | Change Station
CLOSE
Current Station
Personal Weather Station
Location: Dover, VT
Elevation: 1916 ft
Nearby Weather Stations

Elev 1916 ft 42.94 °N, 72.88 °W | Updated 1 minute ago

Clear
Clear
14.0 °F
Feels Like 7 °F
N
4.0
Wind Variable Wind from North
Gusts 11.0 mph

Today
High -- | Low -- °F
--% Chance of Precip.
Yesterday
High -- | Low -- °F
Precip. -- in
6:30 AM 5:37 PM
Waxing Gibbous, 71% visible
Pressure 30.41 in
Visibility 10.0 miles
Clouds Clear
Windchill 7 °F
Dew Point 2 °F
Humidity 43%
Rainfall 0.00 in
Snow Depth Not available.
UV 1 out of 12
Pollen .40 out of 12
Air Quality Not available.
Flu Activity Not available.
METAR KDDH 272054Z AUTO 33007KT 10SM CLR M07/M20 A3036 RMK AO2 SLP296 T10721200 53008

More Conditions Fewer Conditions

Pressure 30.41 in
Visibility 10.0 miles
Clouds Clear
Windchill 7 °F
Dew Point 2 °F
Humidity 43%
Rainfall 0.00 in
Snow Depth Not available.
UV 1 out of 12
Pollen .40 out of 12
Air Quality Not available.
Flu Activity Not available.
METAR KDDH 272054Z AUTO 33007KT 10SM CLR M07/M20 A3036 RMK AO2 SLP296 T10721200 53008

More Conditions Fewer Conditions

10-Day Weather Forecast

Almanac

Astronomy

Feb. 27, 2015 Rise Set
Actual Time
Civil Twilight
Nautical Twilight
Astronomical Twilight
Moon
Length of Visible Light
Length of Day
Tomorrow will be .
, % of the Moon is Illuminated

Today's Extremes

State Highs State Lows

Community

WunderPhotos

Upload Photos

1,800,838 photos uploaded!

WunderBlogs® & News

Nearby

Air Quality

  Air Quality AQ Index Pollutant
Not available.

Snow Depth

Station Depth Elevation

Earthquake Activity

City Distance Mag. Time & Date
Minimum magnitude displayed is 2.5.

Coastal Water Temperatures

Place Temperature

Nearby Weather Stations